Time;durP1;ratioP1;P1;durP2;ratioP2;P2;SDS_P1;SDS_P2;PMS_P1;PMS_P2;Temp;Humidity;BMP_temperature;BMP_pressure;BME280_temperature;BME280_humidity;BME280_pressure;Samples;Min_cycle;Max_cycle;Signal;HPM_P1;HPM_P2
2023/03/14 00:02:16;;;;;;;0.73;0.20;;;11.80;80.50;;;;;;4980450;28;20112;-64
2023/03/14 00:04:42;;;;;;;0.50;0.10;;;11.70;81.10;;;;;;4983116;28;20113;-66
2023/03/14 00:07:09;;;;;;;0.63;0.20;;;11.70;81.60;;;;;;4980712;28;20035;-64
2023/03/14 00:09:35;;;;;;;0.45;0.17;;;11.50;82.30;;;;;;4979297;28;20030;-64
2023/03/14 00:12:02;;;;;;;1.77;0.20;;;11.40;83.00;;;;;;4974958;28;20066;-63
2023/03/14 00:14:28;;;;;;;0.57;0.28;;;11.30;83.70;;;;;;4983741;28;20034;-65
2023/03/14 00:16:54;;;;;;;1.85;0.30;;;11.20;84.00;;;;;;4978544;28;20045;-64
2023/03/14 00:19:20;;;;;;;1.95;0.35;;;11.20;84.10;;;;;;4983096;28;20038;-64
2023/03/14 00:21:46;;;;;;;0.55;0.10;;;11.10;84.60;;;;;;4983733;28;20060;-65
2023/03/14 00:24:11;;;;;;;0.55;0.10;;;11.00;84.40;;;;;;4985584;28;20089;-64
2023/03/14 00:26:37;;;;;;;2.97;0.10;;;10.90;84.50;;;;;;4980758;28;20594;-66
2023/03/14 00:29:02;;;;;;;0.50;0.20;;;10.90;84.80;;;;;;4985498;28;20112;-64
2023/03/14 00:31:28;;;;;;;0.40;0.10;;;10.90;84.90;;;;;;4979979;28;20042;-64
2023/03/14 00:33:54;;;;;;;1.55;0.20;;;10.80;84.90;;;;;;4982076;28;20034;-65
2023/03/14 00:36:20;;;;;;;2.83;0.10;;;10.80;84.80;;;;;;4981964;28;20494;-64
2023/03/14 00:38:50;;;;;;;1.77;0.10;;;10.80;84.80;;;;;;4980183;28;20030;-64
2023/03/14 00:41:19;;;;;;;1.55;0.20;;;10.80;84.60;;;;;;4980475;28;20563;-62
2023/03/14 00:43:45;;;;;;;1.13;0.10;;;10.70;84.20;;;;;;4984006;28;20525;-65
2023/03/14 00:46:11;;;;;;;0.60;0.10;;;10.70;83.80;;;;;;4982534;28;21053;-64
2023/03/14 00:48:37;;;;;;;0.13;0.03;;;10.80;83.50;;;;;;4980236;28;20037;-64
2023/03/14 00:51:04;;;;;;;0.52;0.10;;;10.80;83.40;;;;;;4981775;28;20038;-62
2023/03/14 00:53:30;;;;;;;1.10;0.00;;;10.80;83.70;;;;;;4982161;28;20045;-63
2023/03/14 00:55:55;;;;;;;1.92;0.13;;;10.90;83.40;;;;;;4980854;28;20398;-62
2023/03/14 00:58:21;;;;;;;0.30;0.10;;;10.90;83.20;;;;;;4987394;28;20042;-63
2023/03/14 01:00:46;;;;;;;0.65;0.10;;;10.90;83.10;;;;;;4982269;28;20054;-64
2023/03/14 01:03:13;;;;;;;1.88;0.15;;;11.00;83.10;;;;;;4983890;28;20046;-64
2023/03/14 01:05:39;;;;;;;0.10;0.10;;;11.00;83.10;;;;;;4985206;28;20108;-61
2023/03/14 01:08:06;;;;;;;0.82;0.00;;;10.90;82.70;;;;;;4983505;28;20034;-62
2023/03/14 01:10:32;;;;;;;0.20;0.10;;;10.90;82.70;;;;;;4982470;28;20050;-63
2023/03/14 01:12:58;;;;;;;1.17;0.20;;;10.90;82.60;;;;;;4976476;28;20038;-64
2023/03/14 01:15:24;;;;;;;0.47;0.20;;;10.80;82.20;;;;;;4978886;28;20038;-62
2023/03/14 01:17:49;;;;;;;1.10;0.20;;;10.90;82.00;;;;;;4980190;28;20133;-65
2023/03/14 01:20:16;;;;;;;0.25;0.00;;;10.80;81.90;;;;;;4979014;28;20084;-63
2023/03/14 01:22:42;;;;;;;0.03;0.00;;;10.80;81.80;;;;;;4983729;28;20039;-62
2023/03/14 01:25:11;;;;;;;0.10;0.00;;;10.90;81.70;;;;;;4981888;28;20124;-63
2023/03/14 01:27:37;;;;;;;0.30;0.13;;;10.90;81.60;;;;;;4978555;28;20125;-64
2023/03/14 01:30:04;;;;;;;0.10;0.00;;;10.80;81.40;;;;;;4982118;28;20273;-64
2023/03/14 01:32:29;;;;;;;0.08;0.05;;;10.90;81.50;;;;;;4978393;28;20034;-63
2023/03/14 01:34:55;;;;;;;0.00;0.00;;;10.80;81.60;;;;;;4979494;28;20038;-62
2023/03/14 01:37:21;;;;;;;0.00;0.00;;;10.90;81.50;;;;;;4980493;28;20069;-63
2023/03/14 01:39:47;;;;;;;0.10;0.00;;;10.90;81.30;;;;;;4980522;28;20403;-63
2023/03/14 01:42:13;;;;;;;1.02;0.00;;;10.90;81.30;;;;;;4979826;28;20038;-61
2023/03/14 01:44:58;;;;;;;1.13;0.10;;;10.90;81.20;;;;;;4981010;28;20046;-60
2023/03/14 01:47:24;;;;;;;0.10;0.10;;;10.90;81.60;;;;;;4979385;28;20030;-63
2023/03/14 01:50:04;;;;;;;0.20;0.00;;;10.90;80.90;;;;;;4980826;28;20026;-63
2023/03/14 01:52:47;;;;;;;0.00;0.00;;;10.90;81.40;;;;;;4977635;28;20437;-61
2023/03/14 01:55:17;;;;;;;0.10;0.00;;;10.90;81.70;;;;;;4979690;28;20048;-63
2023/03/14 01:58:00;;;;;;;0.98;0.10;;;10.90;81.00;;;;;;4978537;28;20034;-61
2023/03/14 02:00:26;;;;;;;0.00;0.00;;;10.90;81.90;;;;;;4982181;28;20027;-63
2023/03/14 02:03:04;;;;;;;0.00;0.00;;;10.90;80.90;;;;;;4978497;28;20088;-61
2023/03/14 02:05:34;;;;;;;0.00;0.00;;;10.80;81.50;;;;;;4982172;28;20034;-61
2023/03/14 02:08:02;;;;;;;0.38;0.00;;;10.80;81.10;;;;;;4977905;28;20038;-61
2023/03/14 02:10:32;;;;;;;0.00;0.00;;;10.80;81.20;;;;;;4982592;28;20504;-62
2023/03/14 02:13:01;;;;;;;0.05;0.00;;;10.80;81.10;;;;;;4977292;28;20093;-62
2023/03/14 02:15:27;;;;;;;0.00;0.00;;;10.80;81.20;;;;;;4977183;28;20034;-63
2023/03/14 02:17:53;;;;;;;0.00;0.00;;;10.80;80.90;;;;;;4980389;28;20037;-62
2023/03/14 02:20:22;;;;;;;0.35;0.00;;;10.80;81.00;;;;;;4980517;28;20523;-62
2023/03/14 02:22:48;;;;;;;0.10;0.00;;;10.80;81.20;;;;;;4980766;28;20053;-62
2023/03/14 02:25:23;;;;;;;0.00;0.00;;;10.80;80.90;;;;;;4982964;28;20034;-63
2023/03/14 02:27:49;;;;;;;0.00;0.00;;;10.80;81.10;;;;;;4981224;28;20038;-61
2023/03/14 02:30:18;;;;;;;0.10;0.00;;;10.80;80.80;;;;;;4978429;28;20129;-63
2023/03/14 02:32:47;;;;;;;0.10;0.10;;;10.80;80.70;;;;;;4976576;28;20746;-60
2023/03/14 02:35:18;;;;;;;0.10;0.00;;;10.80;80.70;;;;;;4979953;28;20490;-62
2023/03/14 02:37:49;;;;;;;0.52;0.00;;;10.80;80.60;;;;;;4979463;28;20068;-61
2023/03/14 02:40:15;;;;;;;0.08;0.00;;;10.80;80.60;;;;;;4980191;28;20038;-62
2023/03/14 02:42:41;;;;;;;0.70;0.05;;;10.70;80.50;;;;;;4978945;28;20034;-62
2023/03/14 02:45:09;;;;;;;0.15;0.03;;;10.70;80.50;;;;;;4978004;28;20512;-62
2023/03/14 02:47:41;;;;;;;0.30;0.10;;;10.70;80.80;;;;;;4981726;28;20577;-61
2023/03/14 02:50:12;;;;;;;0.00;0.00;;;10.70;80.80;;;;;;4980429;28;20511;-61
2023/03/14 02:52:37;;;;;;;0.10;0.10;;;10.70;81.00;;;;;;4979420;28;20072;-62
2023/03/14 02:55:03;;;;;;;0.38;0.00;;;10.70;80.80;;;;;;4978100;28;20118;-62
2023/03/14 02:57:29;;;;;;;0.32;0.10;;;10.60;80.60;;;;;;4978952;28;21958;-61
2023/03/14 03:00:03;;;;;;;0.10;0.10;;;10.60;80.70;;;;;;4978744;28;20167;-62
2023/03/14 03:02:29;;;;;;;0.00;0.00;;;10.60;81.00;;;;;;4972421;28;20341;-62
2023/03/14 03:04:55;;;;;;;0.20;0.10;;;10.60;80.60;;;;;;4980422;28;20494;-62
2023/03/14 03:07:20;;;;;;;0.00;0.00;;;10.60;80.90;;;;;;4978878;28;20030;-62
2023/03/14 03:09:46;;;;;;;0.00;0.00;;;10.50;81.00;;;;;;4980272;28;20092;-63
2023/03/14 03:12:12;;;;;;;0.05;0.00;;;10.50;81.00;;;;;;4973284;28;20041;-63
2023/03/14 03:14:37;;;;;;;0.00;0.00;;;10.50;80.80;;;;;;4991457;28;20517;-63
2023/03/14 03:17:04;;;;;;;0.30;0.03;;;10.50;80.70;;;;;;4976687;28;20042;-63
2023/03/14 03:19:31;;;;;;;0.00;0.00;;;10.50;80.80;;;;;;4979736;28;20043;-62
2023/03/14 03:21:57;;;;;;;0.03;0.00;;;10.50;81.00;;;;;;4975395;28;20038;-63
2023/03/14 03:24:23;;;;;;;0.40;0.10;;;10.50;80.90;;;;;;4980969;28;20038;-62
2023/03/14 03:26:49;;;;;;;0.00;0.00;;;10.50;80.90;;;;;;4981260;28;20108;-60
2023/03/14 03:29:14;;;;;;;0.52;0.00;;;10.40;81.00;;;;;;4982261;28;20109;-62
2023/03/14 03:31:40;;;;;;;0.20;0.00;;;10.40;81.00;;;;;;4983279;28;20121;-62
2023/03/14 03:34:06;;;;;;;0.00;0.00;;;10.40;80.80;;;;;;4986405;28;20204;-62
2023/03/14 03:36:31;;;;;;;0.13;0.00;;;10.40;80.90;;;;;;4987911;28;20064;-60
2023/03/14 03:38:57;;;;;;;1.38;0.00;;;10.40;81.00;;;;;;4988134;28;20034;-60
2023/03/14 03:41:23;;;;;;;1.30;0.08;;;10.40;80.90;;;;;;4984875;28;20041;-61
2023/03/14 03:43:48;;;;;;;0.05;0.05;;;10.40;80.90;;;;;;4983448;28;20494;-61
2023/03/14 03:46:14;;;;;;;0.70;0.08;;;10.40;80.80;;;;;;4981662;28;20034;-62
2023/03/14 03:48:40;;;;;;;0.00;0.00;;;10.40;80.90;;;;;;4980149;28;20034;-63
2023/03/14 03:51:06;;;;;;;0.20;0.05;;;10.40;80.70;;;;;;4985599;28;20383;-62
2023/03/14 03:53:32;;;;;;;0.00;0.00;;;10.40;80.80;;;;;;4984904;28;20536;-61
2023/03/14 03:55:58;;;;;;;0.13;0.10;;;10.40;80.80;;;;;;4985629;28;20039;-60
2023/03/14 03:58:23;;;;;;;0.10;0.00;;;10.30;81.60;;;;;;4984371;28;20030;-63
2023/03/14 04:00:49;;;;;;;0.13;0.03;;;10.30;80.70;;;;;;4982533;28;20035;-62
2023/03/14 04:03:14;;;;;;;0.00;0.00;;;10.30;80.70;;;;;;4985709;28;20046;-61
2023/03/14 04:05:40;;;;;;;0.10;0.00;;;10.30;80.60;;;;;;4984250;28;20215;-60
2023/03/14 04:08:06;;;;;;;0.10;0.10;;;10.30;80.70;;;;;;4980957;28;20039;-62
2023/03/14 04:10:35;;;;;;;0.52;0.00;;;10.30;80.80;;;;;;4985707;28;20034;-62
2023/03/14 04:13:00;;;;;;;0.10;0.10;;;10.20;80.90;;;;;;4979282;28;20073;-63
2023/03/14 04:15:26;;;;;;;0.15;0.10;;;10.20;80.60;;;;;;4984468;28;20500;-62
2023/03/14 04:17:55;;;;;;;0.00;0.00;;;10.20;80.60;;;;;;4984417;28;20085;-63
2023/03/14 04:20:21;;;;;;;0.20;0.10;;;10.20;80.60;;;;;;4984350;28;20073;-62
2023/03/14 04:22:46;;;;;;;0.90;0.10;;;10.20;80.60;;;;;;4982723;28;20561;-60
2023/03/14 04:25:12;;;;;;;0.50;0.10;;;10.20;80.50;;;;;;4984767;28;20800;-63
2023/03/14 04:27:37;;;;;;;0.15;0.15;;;10.20;80.50;;;;;;4986712;28;20046;-63
2023/03/14 04:30:03;;;;;;;0.85;0.10;;;10.20;80.40;;;;;;4979733;28;20053;-62
2023/03/14 04:32:29;;;;;;;1.38;0.20;;;10.20;80.30;;;;;;4982654;28;20030;-61
2023/03/14 04:34:54;;;;;;;1.38;0.20;;;10.20;80.20;;;;;;4984822;28;20502;-63
2023/03/14 04:37:20;;;;;;;0.10;0.10;;;10.10;80.10;;;;;;4983951;28;20095;-62
2023/03/14 04:39:46;;;;;;;0.03;0.00;;;10.20;80.10;;;;;;4983268;28;20042;-62
2023/03/14 04:42:11;;;;;;;0.73;0.10;;;10.10;79.80;;;;;;4982384;28;20053;-62
2023/03/14 04:44:37;;;;;;;0.93;0.03;;;10.20;79.80;;;;;;4980579;28;20048;-61
2023/03/14 04:47:02;;;;;;;0.15;0.08;;;10.10;79.70;;;;;;4982806;28;20240;-62
2023/03/14 04:49:28;;;;;;;4.22;3.20;;;10.10;79.60;;;;;;4981353;28;20498;-61
2023/03/14 04:51:53;;;;;;;44.42;15.40;;;10.10;79.60;;;;;;4982857;28;20126;-61
2023/03/14 04:54:19;;;;;;;40.45;13.98;;;10.10;79.60;;;;;;4983886;28;20046;-62
2023/03/14 04:56:44;;;;;;;10.18;4.80;;;10.10;79.40;;;;;;4982599;28;20509;-62
2023/03/14 04:59:10;;;;;;;3.10;2.47;;;10.10;79.40;;;;;;4983054;28;20077;-62
2023/03/14 05:01:36;;;;;;;1.65;1.55;;;10.10;79.40;;;;;;4982849;28;20262;-63
2023/03/14 05:04:01;;;;;;;0.60;0.60;;;10.10;79.30;;;;;;4976654;28;20502;-63
2023/03/14 05:06:27;;;;;;;0.57;0.17;;;10.10;79.40;;;;;;4980956;28;20097;-62
2023/03/14 05:08:53;;;;;;;0.22;0.10;;;10.10;79.30;;;;;;4977731;28;20049;-62
2023/03/14 05:11:18;;;;;;;0.28;0.20;;;10.10;79.30;;;;;;4976703;28;20073;-62
2023/03/14 05:13:44;;;;;;;1.35;0.70;;;10.10;79.30;;;;;;4982747;28;20113;-62
2023/03/14 05:16:11;;;;;;;0.20;0.20;;;10.10;79.20;;;;;;4978850;28;20506;-61
2023/03/14 05:18:36;;;;;;;1.40;0.20;;;10.10;79.20;;;;;;4976041;28;20410;-61
2023/03/14 05:21:03;;;;;;;0.45;0.20;;;10.00;79.10;;;;;;4982353;28;20035;-60
2023/03/14 05:23:29;;;;;;;1.50;1.02;;;10.00;79.20;;;;;;4982047;28;20039;-63
2023/03/14 05:25:54;;;;;;;0.50;0.40;;;10.00;79.10;;;;;;4984918;28;20445;-62
2023/03/14 05:28:20;;;;;;;0.38;0.20;;;10.00;79.20;;;;;;4986519;28;20038;-63
2023/03/14 05:30:46;;;;;;;0.20;0.20;;;10.00;79.10;;;;;;4981041;28;20096;-61
2023/03/14 05:33:11;;;;;;;0.50;0.50;;;10.00;79.10;;;;;;4982850;28;20502;-63
2023/03/14 05:35:37;;;;;;;0.85;0.47;;;10.00;79.30;;;;;;4983727;28;20126;-63
2023/03/14 05:38:03;;;;;;;0.60;0.40;;;10.00;79.30;;;;;;4986194;28;20038;-62
2023/03/14 05:40:28;;;;;;;0.90;0.90;;;9.90;79.30;;;;;;4983431;28;20117;-63
2023/03/14 05:42:54;;;;;;;0.30;0.30;;;10.00;79.50;;;;;;4981095;28;20034;-62
2023/03/14 05:45:19;;;;;;;0.25;0.10;;;9.90;79.40;;;;;;4980780;28;20042;-61
2023/03/14 05:47:45;;;;;;;0.13;0.10;;;9.90;79.40;;;;;;4979508;28;20042;-60
2023/03/14 05:50:11;;;;;;;0.25;0.10;;;9.90;79.70;;;;;;4981180;28;20417;-62
2023/03/14 05:52:36;;;;;;;8.15;5.82;;;9.90;79.40;;;;;;4981957;28;20030;-60
2023/03/14 05:55:03;;;;;;;0.50;0.50;;;9.90;79.40;;;;;;4981191;28;20038;-63
2023/03/14 05:57:28;;;;;;;0.30;0.30;;;9.90;79.60;;;;;;4979486;28;20037;-62
2023/03/14 05:59:54;;;;;;;0.20;0.20;;;9.90;79.60;;;;;;4977801;28;20030;-61
2023/03/14 06:02:19;;;;;;;0.20;0.20;;;9.90;79.60;;;;;;4981413;28;20046;-61
2023/03/14 06:04:45;;;;;;;0.30;0.30;;;9.90;79.60;;;;;;4982027;28;20150;-60
2023/03/14 06:07:10;;;;;;;0.28;0.20;;;9.90;79.60;;;;;;4982384;28;20039;-62
2023/03/14 06:09:36;;;;;;;0.10;0.10;;;9.90;79.60;;;;;;4975033;28;20038;-60
2023/03/14 06:12:03;;;;;;;0.30;0.30;;;9.90;79.60;;;;;;4975544;28;20039;-62
2023/03/14 06:14:28;;;;;;;0.30;0.30;;;9.90;79.70;;;;;;4978447;28;20474;-61
2023/03/14 06:16:54;;;;;;;0.30;0.20;;;9.90;79.60;;;;;;4980645;28;20222;-60
2023/03/14 06:19:19;;;;;;;0.55;0.35;;;9.90;79.50;;;;;;4984179;28;20039;-62
2023/03/14 06:21:45;;;;;;;0.88;0.40;;;9.90;79.60;;;;;;4979551;28;20035;-62
2023/03/14 06:24:11;;;;;;;0.65;0.63;;;9.90;79.50;;;;;;4980876;28;20042;-62
2023/03/14 06:26:36;;;;;;;0.30;0.30;;;9.90;79.40;;;;;;4979794;28;20034;-61
2023/03/14 06:29:03;;;;;;;0.17;0.13;;;9.90;79.40;;;;;;4982345;28;20038;-63
2023/03/14 06:31:30;;;;;;;0.38;0.20;;;9.90;79.40;;;;;;4977713;28;20039;-62
2023/03/14 06:33:55;;;;;;;0.20;0.13;;;9.90;79.40;;;;;;4977083;28;20041;-62
2023/03/14 06:36:21;;;;;;;0.28;0.20;;;9.90;79.40;;;;;;4982519;28;20650;-62
2023/03/14 06:38:47;;;;;;;0.82;0.15;;;9.90;79.30;;;;;;4982009;28;20069;-62
2023/03/14 06:41:12;;;;;;;4.60;0.20;;;9.90;79.30;;;;;;4976714;28;20030;-62
2023/03/14 06:43:38;;;;;;;0.82;0.20;;;10.00;79.30;;;;;;4980852;28;20043;-63
2023/03/14 06:46:04;;;;;;;0.10;0.10;;;10.00;79.30;;;;;;4981712;28;20458;-62
2023/03/14 06:48:30;;;;;;;0.20;0.10;;;10.00;79.10;;;;;;4982160;28;20034;-62
2023/03/14 06:50:55;;;;;;;0.50;0.10;;;10.00;79.10;;;;;;4981316;28;20177;-62
2023/03/14 06:53:21;;;;;;;0.20;0.10;;;10.00;79.00;;;;;;4979852;28;20034;-63
2023/03/14 06:55:47;;;;;;;2.33;0.10;;;10.00;78.90;;;;;;4982338;28;20038;-63
2023/03/14 06:58:13;;;;;;;0.10;0.00;;;10.10;79.70;;;;;;4974884;28;20125;-62
2023/03/14 07:00:38;;;;;;;2.22;0.40;;;10.10;78.80;;;;;;4977754;28;20042;-60
2023/03/14 07:03:04;;;;;;;0.75;0.10;;;10.10;78.70;;;;;;4980126;28;20506;-63
2023/03/14 07:05:29;;;;;;;0.10;0.00;;;10.10;78.70;;;;;;4979252;28;20042;-61
2023/03/14 07:07:55;;;;;;;0.70;0.20;;;10.10;79.40;;;;;;4978027;28;20042;-63
2023/03/14 07:10:21;;;;;;;0.68;0.22;;;10.20;78.60;;;;;;4981055;28;20049;-60
2023/03/14 07:12:47;;;;;;;1.20;0.30;;;10.20;78.50;;;;;;4976725;28;20579;-60
2023/03/14 07:15:12;;;;;;;2.30;0.20;;;10.20;78.50;;;;;;4983314;28;20038;-61
2023/03/14 07:17:38;;;;;;;1.90;0.10;;;10.20;78.30;;;;;;4986387;28;20339;-62
2023/03/14 07:20:04;;;;;;;0.45;0.20;;;10.30;78.30;;;;;;4979990;28;20054;-61
2023/03/14 07:22:31;;;;;;;0.65;0.10;;;10.30;78.10;;;;;;4981765;28;20177;-63
2023/03/14 07:24:56;;;;;;;0.85;0.20;;;10.30;78.00;;;;;;4986471;28;20042;-62
2023/03/14 07:27:22;;;;;;;0.70;0.10;;;10.40;78.00;;;;;;4989459;28;20042;-62
2023/03/14 07:29:47;;;;;;;0.45;0.08;;;10.40;78.00;;;;;;4984224;28;20518;-62
2023/03/14 07:32:14;;;;;;;0.20;0.10;;;10.40;77.70;;;;;;4990401;28;20517;-63
2023/03/14 07:34:41;;;;;;;0.30;0.10;;;10.50;77.80;;;;;;4989656;28;20052;-63
2023/03/14 07:37:07;;;;;;;0.20;0.08;;;10.50;77.70;;;;;;4989864;28;20039;-64
2023/03/14 07:39:33;;;;;;;0.45;0.03;;;10.50;77.70;;;;;;4987129;28;20041;-62
2023/03/14 07:41:59;;;;;;;0.40;0.20;;;10.60;77.70;;;;;;4982334;28;20074;-62
2023/03/14 07:44:25;;;;;;;1.35;0.10;;;10.60;77.50;;;;;;4983687;28;20114;-63
2023/03/14 07:46:51;;;;;;;1.33;0.10;;;10.60;77.40;;;;;;4979632;28;20509;-63
2023/03/14 07:49:16;;;;;;;0.20;0.10;;;10.60;77.50;;;;;;4984923;28;20031;-61
2023/03/14 07:51:43;;;;;;;1.55;0.10;;;10.60;77.30;;;;;;4970514;28;20126;-62
2023/03/14 07:54:09;;;;;;;1.65;0.10;;;10.70;77.20;;;;;;4959502;28;20600;-62
2023/03/14 07:56:35;;;;;;;0.00;0.00;;;10.70;77.30;;;;;;4963549;28;20046;-61
2023/03/14 07:59:01;;;;;;;0.15;0.10;;;10.80;77.30;;;;;;4967850;28;20073;-62
2023/03/14 08:01:26;;;;;;;0.10;0.10;;;10.80;77.50;;;;;;4966407;28;20058;-62
2023/03/14 08:03:52;;;;;;;1.70;0.10;;;10.80;77.70;;;;;;4979065;28;20057;-61
2023/03/14 08:06:17;;;;;;;1.73;0.20;;;10.90;77.50;;;;;;4970059;28;20026;-63
2023/03/14 08:08:43;;;;;;;2.25;0.10;;;10.90;77.60;;;;;;4968017;28;20038;-62
2023/03/14 08:11:09;;;;;;;0.38;0.20;;;11.00;77.60;;;;;;4971859;28;20092;-60
2023/03/14 08:13:35;;;;;;;0.10;0.10;;;11.10;77.30;;;;;;4974575;28;20062;-62
2023/03/14 08:16:01;;;;;;;0.75;0.10;;;11.20;77.40;;;;;;4973242;28;20066;-63
2023/03/14 08:18:26;;;;;;;0.32;0.17;;;11.20;77.20;;;;;;4967514;28;20125;-61
2023/03/14 08:20:52;;;;;;;0.55;0.10;;;11.30;77.00;;;;;;4972016;28;22388;-64
2023/03/14 08:23:18;;;;;;;0.43;0.10;;;11.40;76.60;;;;;;4964793;28;20105;-60
2023/03/14 08:25:43;;;;;;;0.90;0.47;;;11.40;76.20;;;;;;4968732;28;20113;-60
2023/03/14 08:28:09;;;;;;;0.45;0.30;;;11.50;76.00;;;;;;4982596;28;20038;-61
2023/03/14 08:30:34;;;;;;;0.45;0.20;;;11.60;75.80;;;;;;4984564;28;20046;-59
2023/03/14 08:33:00;;;;;;;0.40;0.22;;;11.60;75.60;;;;;;4983101;28;20097;-63
2023/03/14 08:35:26;;;;;;;2.03;1.05;;;11.70;75.30;;;;;;4983348;28;22096;-61
2023/03/14 08:37:52;;;;;;;3.60;0.88;;;11.70;76.10;;;;;;4984841;28;20149;-61
2023/03/14 08:40:18;;;;;;;0.60;0.38;;;11.70;75.10;;;;;;4984251;28;20513;-62
2023/03/14 08:42:44;;;;;;;0.60;0.20;;;11.80;74.90;;;;;;4984669;28;20102;-62
2023/03/14 08:45:13;;;;;;;1.40;0.20;;;11.90;74.70;;;;;;4979040;28;20038;-60
2023/03/14 08:47:39;;;;;;;0.10;0.10;;;12.00;74.70;;;;;;4983867;28;20585;-60
2023/03/14 08:50:06;;;;;;;0.52;0.20;;;12.00;74.40;;;;;;4983916;28;20069;-60
2023/03/14 08:52:32;;;;;;;0.32;0.10;;;12.10;73.90;;;;;;4982718;28;20086;-61
2023/03/14 08:54:58;;;;;;;2.22;0.10;;;12.20;73.80;;;;;;4982903;28;20066;-61
2023/03/14 08:57:27;;;;;;;1.00;0.20;;;12.30;73.60;;;;;;4985635;28;20042;-60
2023/03/14 08:59:55;;;;;;;1.23;0.90;;;12.30;73.40;;;;;;4981129;28;20038;-61
2023/03/14 09:02:21;;;;;;;0.60;0.20;;;12.40;72.90;;;;;;4976074;28;20468;-61
2023/03/14 09:04:46;;;;;;;2.30;0.43;;;12.40;72.10;;;;;;4982905;28;20509;-61
2023/03/14 09:07:12;;;;;;;1.08;0.43;;;12.50;71.80;;;;;;4986049;28;20042;-60
2023/03/14 09:09:38;;;;;;;0.20;0.10;;;12.60;71.60;;;;;;4986922;28;20271;-62
2023/03/14 09:12:04;;;;;;;0.32;0.10;;;12.60;71.30;;;;;;4986539;28;20065;-61
2023/03/14 09:14:30;;;;;;;0.95;0.15;;;12.60;71.30;;;;;;4986277;28;20104;-61
2023/03/14 09:16:56;;;;;;;1.65;0.10;;;12.70;71.20;;;;;;4987950;28;20517;-62
2023/03/14 09:19:21;;;;;;;0.30;0.10;;;12.80;71.10;;;;;;4987559;28;20065;-60
2023/03/14 09:21:47;;;;;;;0.08;0.08;;;12.70;70.30;;;;;;4985742;28;20038;-60
2023/03/14 09:24:13;;;;;;;1.60;0.20;;;12.80;70.20;;;;;;4985449;28;20120;-59
2023/03/14 09:26:38;;;;;;;0.30;0.20;;;12.80;70.00;;;;;;4986476;28;20034;-61
2023/03/14 09:29:04;;;;;;;0.17;0.05;;;12.90;70.40;;;;;;4985419;28;20030;-61
2023/03/14 09:31:29;;;;;;;1.52;0.30;;;12.90;70.10;;;;;;4986406;28;20042;-62
2023/03/14 09:33:55;;;;;;;0.77;0.10;;;12.90;70.10;;;;;;4986705;28;20031;-61
2023/03/14 09:36:21;;;;;;;0.30;0.10;;;12.90;69.80;;;;;;4987082;28;20041;-61
2023/03/14 09:38:47;;;;;;;0.20;0.10;;;12.90;69.70;;;;;;4986182;28;20038;-59
2023/03/14 09:41:25;;;;;;;0.75;0.20;;;12.90;70.00;;;;;;4987507;28;20501;-60
2023/03/14 09:44:16;;;;;;;0.30;0.20;;;13.00;69.20;;;;;;4988092;28;20034;-61
2023/03/14 09:46:45;;;;;;;1.45;0.20;;;13.00;69.80;;;;;;4985877;28;20405;-60
2023/03/14 09:49:34;;;;;;;0.70;0.30;;;13.10;69.90;;;;;;4987129;28;20177;-59
2023/03/14 09:52:04;;;;;;;2.65;0.20;;;13.10;68.50;;;;;;4983923;28;20034;-60
2023/03/14 09:54:30;;;;;;;0.45;0.10;;;13.20;69.10;;;;;;4984219;28;20094;-60
2023/03/14 09:56:55;;;;;;;1.13;0.10;;;13.20;69.30;;;;;;4986225;28;20060;-63
2023/03/14 09:59:21;;;;;;;1.10;0.20;;;13.30;68.60;;;;;;4983568;28;20414;-62
2023/03/14 10:01:47;;;;;;;0.25;0.10;;;13.30;68.30;;;;;;4984311;28;20069;-61
2023/03/14 10:04:18;;;;;;;1.63;0.28;;;13.40;68.10;;;;;;4984386;28;20038;-59
2023/03/14 10:06:44;;;;;;;0.30;0.15;;;13.40;68.80;;;;;;4984393;28;20038;-61
2023/03/14 10:09:24;;;;;;;0.22;0.17;;;13.40;67.40;;;;;;4984082;28;20038;-60
2023/03/14 10:11:53;;;;;;;0.00;0.00;;;13.50;66.40;;;;;;4977374;28;20125;-62
2023/03/14 10:14:33;;;;;;;0.93;0.10;;;13.50;67.00;;;;;;4983665;28;20035;-62
2023/03/14 10:17:06;;;;;;;1.48;0.10;;;13.50;65.50;;;;;;4985698;28;20045;-60
2023/03/14 10:19:32;;;;;;;0.40;0.10;;;13.50;66.40;;;;;;4986664;28;20034;-61
2023/03/14 10:22:01;;;;;;;65.75;24.45;;;13.50;66.10;;;;;;4982342;28;20124;-62
2023/03/14 10:24:30;;;;;;;6.88;3.15;;;13.60;66.20;;;;;;4966194;28;20785;-60
2023/03/14 10:27:03;;;;;;;0.68;0.45;;;13.60;66.00;;;;;;4976886;28;20034;-63
2023/03/14 10:29:31;;;;;;;0.40;0.40;;;13.60;65.60;;;;;;4968248;28;20038;-62
2023/03/14 10:32:06;;;;;;;0.50;0.15;;;13.60;66.00;;;;;;4977008;28;20132;-62
2023/03/14 10:34:34;;;;;;;0.20;0.13;;;13.60;65.80;;;;;;4976523;28;20038;-62
2023/03/14 10:37:22;;;;;;;19.15;11.00;;;13.60;66.20;;;;;;4973101;28;20168;-61
2023/03/14 10:39:51;;;;;;;2.90;2.25;;;13.60;66.00;;;;;;4978063;28;20482;-62
2023/03/14 10:42:46;;;;;;;0.80;0.70;;;13.70;66.50;;;;;;4962645;28;20046;-62
2023/03/14 10:45:34;;;;;;;0.47;0.38;;;13.70;66.40;;;;;;4974699;28;20042;-59
2023/03/14 10:48:16;;;;;;;1.55;0.28;;;13.70;65.50;;;;;;4965790;28;20589;-62
2023/03/14 10:50:59;;;;;;;1.02;0.10;;;13.70;66.00;;;;;;4977788;28;20065;-62
2023/03/14 10:53:25;;;;;;;0.28;0.08;;;13.80;65.40;;;;;;4974121;28;20023;-59
2023/03/14 10:55:51;;;;;;;0.30;0.10;;;13.90;65.30;;;;;;4976678;28;20407;-62
2023/03/14 10:58:41;;;;;;;0.00;0.00;;;13.90;64.60;;;;;;4978130;28;20045;-62
2023/03/14 11:01:06;;;;;;;29.63;13.50;;;13.90;64.10;;;;;;4975426;28;20041;-63
2023/03/14 11:03:35;;;;;;;2.15;1.45;;;13.90;64.70;;;;;;4972521;28;20046;-62
2023/03/14 11:06:12;;;;;;;0.63;0.40;;;13.90;64.80;;;;;;4984580;28;20053;-62
2023/03/14 11:09:05;;;;;;;0.93;0.30;;;13.90;64.80;;;;;;4983312;28;20044;-61
2023/03/14 11:11:31;;;;;;;0.05;0.00;;;13.90;64.60;;;;;;4983524;28;20042;-59
2023/03/14 11:14:18;;;;;;;0.47;0.10;;;14.00;65.00;;;;;;4984449;28;20042;-61
2023/03/14 11:17:05;;;;;;;0.03;0.00;;;14.00;64.80;;;;;;4984994;28;20092;-62
2023/03/14 11:19:43;;;;;;;0.20;0.10;;;14.00;63.90;;;;;;4985321;28;20074;-60
2023/03/14 11:22:20;;;;;;;0.15;0.00;;;14.00;63.70;;;;;;4975956;28;20046;-61
2023/03/14 11:24:53;;;;;;;0.17;0.00;;;13.90;64.50;;;;;;4982395;28;20586;-60
2023/03/14 11:27:27;;;;;;;2.08;0.10;;;13.90;64.10;;;;;;4987549;28;20647;-60
2023/03/14 11:29:59;;;;;;;0.20;0.20;;;13.80;63.60;;;;;;4986489;28;20038;-62
2023/03/14 11:32:49;;;;;;;0.10;0.00;;;13.80;64.00;;;;;;4986798;28;20039;-61
2023/03/14 11:35:14;;;;;;;0.10;0.00;;;13.80;63.60;;;;;;4982032;28;20038;-62
2023/03/14 11:37:55;;;;;;;0.00;0.00;;;13.80;63.80;;;;;;4983676;28;20425;-61
2023/03/14 11:40:26;;;;;;;0.00;0.00;;;13.80;64.10;;;;;;4977167;28;20034;-60
2023/03/14 11:43:05;;;;;;;0.15;0.00;;;13.70;64.40;;;;;;4978200;28;20038;-62
2023/03/14 11:45:36;;;;;;;0.08;0.00;;;13.70;64.00;;;;;;4980485;28;20033;-62
2023/03/14 11:48:23;;;;;;;0.00;0.00;;;13.80;64.10;;;;;;4976490;28;20088;-62
2023/03/14 11:50:53;;;;;;;0.10;0.00;;;13.80;64.00;;;;;;4976384;28;20034;-62
2023/03/14 11:53:47;;;;;;;1.27;0.10;;;13.80;65.00;;;;;;4977802;28;20522;-62
2023/03/14 11:56:25;;;;;;;0.30;0.30;;;13.80;64.50;;;;;;4985349;28;20041;-61
2023/03/14 11:59:02;;;;;;;2.17;1.50;;;13.80;64.90;;;;;;4986739;28;20523;-62
2023/03/14 12:01:39;;;;;;;6.18;2.63;;;13.80;65.20;;;;;;4977775;28;20112;-60
2023/03/14 12:04:20;;;;;;;2.92;1.45;;;13.70;65.30;;;;;;4984311;28;20042;-59
2023/03/14 12:06:50;;;;;;;2.97;0.63;;;13.60;65.50;;;;;;4980915;28;20038;-61
2023/03/14 12:09:19;;;;;;;0.40;0.20;;;13.60;65.40;;;;;;4987383;28;20045;-62
2023/03/14 12:11:52;;;;;;;0.90;0.13;;;13.50;65.70;;;;;;4981598;28;20041;-63
2023/03/14 12:14:36;;;;;;;0.17;0.10;;;13.40;65.90;;;;;;4987824;28;20059;-61
2023/03/14 12:17:18;;;;;;;0.22;0.10;;;13.30;66.60;;;;;;4973292;28;20062;-61
2023/03/14 12:19:46;;;;;;;0.10;0.00;;;13.20;67.40;;;;;;4982639;28;20338;-60
2023/03/14 12:22:28;;;;;;;0.20;0.10;;;13.10;67.30;;;;;;4971760;28;20188;-61
2023/03/14 12:25:17;;;;;;;0.10;0.10;;;13.00;67.40;;;;;;4977393;28;20038;-62
2023/03/14 12:27:43;;;;;;;0.03;0.00;;;12.90;67.80;;;;;;4981790;28;20132;-61
2023/03/14 12:30:30;;;;;;;0.10;0.00;;;12.80;68.60;;;;;;4972765;28;20406;-64
2023/03/14 12:33:20;;;;;;;0.08;0.00;;;12.70;69.10;;;;;;4976869;28;20049;-63
2023/03/14 12:35:49;;;;;;;0.30;0.05;;;12.60;69.70;;;;;;4971039;28;20566;-61
2023/03/14 12:38:37;;;;;;;1.77;0.00;;;12.50;69.30;;;;;;4982405;28;20046;-60
2023/03/14 12:41:26;;;;;;;0.10;0.10;;;12.40;70.20;;;;;;4980046;28;20085;-60
2023/03/14 12:43:52;;;;;;;0.95;0.10;;;12.20;71.00;;;;;;4985059;28;20532;-61
2023/03/14 12:46:17;;;;;;;0.10;0.08;;;12.10;70.90;;;;;;4986168;28;20042;-62
2023/03/14 12:48:47;;;;;;;0.00;0.00;;;12.10;71.50;;;;;;4982602;28;20034;-63
2023/03/14 12:51:14;;;;;;;0.10;0.00;;;12.00;71.80;;;;;;4985077;28;20653;-63
2023/03/14 12:53:54;;;;;;;0.45;0.10;;;12.00;72.20;;;;;;4980773;28;20445;-61
2023/03/14 12:56:22;;;;;;;2.38;1.45;;;12.00;72.50;;;;;;4984418;28;20096;-62